Time;durP1;ratioP1;P1;durP2;ratioP2;P2;SDS_P1;SDS_P2;PMS_P1;PMS_P2;Temp;Humidity;BMP_temperature;BMP_pressure;BME280_temperature;BME280_humidity;BME280_pressure;Samples;Min_cycle;Max_cycle;Signal;HPM_P1;HPM_P2
2023/10/20 00:01:27;;;;;;;3.42;2.65;;;;;;;20.47;52.26;98707.25;5045756;28;20092;-76
2023/10/20 00:03:52;;;;;;;3.53;3.17;;;;;;;20.69;52.00;98748.09;5063580;28;20025;-76
2023/10/20 00:06:18;;;;;;;4.43;3.45;;;;;;;20.54;52.03;98726.91;5044374;28;20393;-76
2023/10/20 00:08:44;;;;;;;3.40;3.10;;;;;;;20.64;52.33;98743.34;5061956;28;20025;-77
2023/10/20 00:11:10;;;;;;;4.10;3.00;;;;;;;20.31;52.17;98686.38;5044994;28;20040;-76
2023/10/20 00:13:36;;;;;;;3.65;3.25;;;;;;;20.63;52.15;98724.69;5063871;28;20040;-76
2023/10/20 00:16:01;;;;;;;3.50;3.10;;;;;;;20.63;52.06;98713.91;5061991;28;20032;-76
2023/10/20 00:18:26;;;;;;;4.05;3.35;;;;;;;20.59;52.09;98700.03;5046004;28;20081;-77
2023/10/20 00:20:52;;;;;;;3.78;2.97;;;;;;;20.61;52.25;98699.81;5063152;28;20047;-76
2023/10/20 00:23:17;;;;;;;3.65;3.28;;;;;;;20.37;52.31;98667.38;5045339;28;20029;-76
2023/10/20 00:25:44;;;;;;;4.05;3.35;;;;;;;20.44;52.07;98680.75;5063064;28;20033;-76
2023/10/20 00:28:09;;;;;;;4.93;4.18;;;;;;;20.58;52.39;98706.50;5063675;28;20028;-76
2023/10/20 00:30:36;;;;;;;4.28;3.40;;;;;;;20.58;52.23;98701.09;5043832;28;20045;-77
2023/10/20 00:33:01;;;;;;;4.25;3.38;;;;;;;20.57;52.20;98695.94;5061961;28;20086;-76
2023/10/20 00:35:27;;;;;;;4.57;3.25;;;;;;;20.42;52.02;98678.28;5060817;28;20488;-76
2023/10/20 00:37:52;;;;;;;4.05;3.63;;;;;;;20.44;52.08;98686.97;5040843;28;20045;-77
2023/10/20 00:40:19;;;;;;;4.97;3.15;;;;;;;20.55;52.32;98706.13;5045582;28;20024;-77
2023/10/20 00:42:45;;;;;;;4.95;3.83;;;;;;;20.52;52.33;98690.41;5062865;28;20021;-76
2023/10/20 00:45:11;;;;;;;3.80;3.20;;;;;;;20.53;52.38;98692.06;5062102;28;20044;-76
2023/10/20 00:47:38;;;;;;;3.55;3.20;;;;;;;20.53;52.13;98670.47;5063518;28;20032;-76
2023/10/20 00:50:04;;;;;;;4.05;3.15;;;;;;;20.51;52.09;98670.69;5061932;28;20379;-76
2023/10/20 00:52:30;;;;;;;4.18;3.53;;;;;;;20.47;52.38;98651.44;5061884;28;20024;-76
2023/10/20 00:54:55;;;;;;;5.03;4.05;;;;;;;20.39;52.31;98642.81;5062973;28;20037;-76
2023/10/20 00:57:21;;;;;;;3.75;3.17;;;;;;;20.36;52.36;98638.72;5063121;28;20017;-76
2023/10/20 00:59:47;;;;;;;4.70;3.38;;;;;;;20.25;52.40;98620.66;5045377;28;20139;-76
2023/10/20 01:02:12;;;;;;;3.97;3.58;;;;;;;20.46;52.11;98636.25;5048991;28;20376;-76
2023/10/20 01:04:37;;;;;;;5.10;3.70;;;;;;;20.27;52.24;98618.56;5048917;28;20033;-76
2023/10/20 01:07:03;;;;;;;4.57;3.55;;;;;;;20.41;52.48;98632.63;5048775;28;20025;-77
2023/10/20 01:09:28;;;;;;;4.65;3.88;;;;;;;20.41;52.40;98633.44;5065023;28;20025;-76
2023/10/20 01:11:54;;;;;;;4.50;3.60;;;;;;;20.27;52.15;98623.13;5048892;28;20040;-76
2023/10/20 01:14:20;;;;;;;5.43;3.83;;;;;;;20.22;52.34;98618.44;5066070;28;20025;-76
2023/10/20 01:16:46;;;;;;;4.93;4.03;;;;;;;20.41;52.20;98643.44;5065541;28;20051;-77
2023/10/20 01:19:12;;;;;;;7.32;4.32;;;;;;;20.39;52.44;98645.53;5067166;28;20061;-77
2023/10/20 01:21:37;;;;;;;4.88;3.80;;;;;;;20.38;52.38;98644.72;5065209;28;20028;-76
2023/10/20 01:24:04;;;;;;;3.88;3.22;;;;;;;20.23;52.28;98630.84;5066125;28;20055;-76
2023/10/20 01:26:30;;;;;;;4.22;3.83;;;;;;;19.75;52.38;98547.38;5065214;28;20111;-77
2023/10/20 01:28:55;;;;;;;5.18;4.13;;;;;;;20.34;52.45;98635.44;5065930;28;20028;-76
2023/10/20 01:31:22;;;;;;;5.20;3.88;;;;;;;20.33;52.39;98633.78;5048781;28;20024;-76
2023/10/20 01:33:48;;;;;;;5.32;4.20;;;;;;;20.21;52.41;98608.66;5065296;28;20027;-76
2023/10/20 01:36:13;;;;;;;4.18;3.55;;;;;;;20.26;52.25;98621.47;5064517;28;20049;-76
2023/10/20 01:38:38;;;;;;;5.70;4.47;;;;;;;20.31;52.46;98629.69;5048655;28;20029;-76
2023/10/20 01:41:04;;;;;;;6.85;4.10;;;;;;;20.31;52.47;98632.41;5068335;28;20016;-76
2023/10/20 01:43:29;;;;;;;4.38;3.97;;;;;;;20.30;52.44;98617.25;5066599;28;20033;-76
2023/10/20 01:45:54;;;;;;;4.78;4.18;;;;;;;20.29;52.50;98618.31;5046437;28;20028;-76
2023/10/20 01:48:20;;;;;;;4.50;3.78;;;;;;;20.28;52.29;98612.09;5048676;28;20036;-76
2023/10/20 01:50:45;;;;;;;4.88;3.97;;;;;;;20.27;52.62;98610.47;5064951;28;20063;-76
2023/10/20 01:53:10;;;;;;;5.00;3.80;;;;;;;20.08;52.25;98579.22;5065824;28;20021;-76
2023/10/20 01:55:39;;;;;;;5.13;4.15;;;;;;;20.26;52.25;98594.47;5065883;28;20482;-76
2023/10/20 01:58:04;;;;;;;5.75;4.43;;;;;;;20.18;52.32;98579.47;5048898;28;20021;-76
2023/10/20 02:00:30;;;;;;;4.60;3.85;;;;;;;20.18;52.49;98590.28;5065055;28;20031;-76
2023/10/20 02:02:56;;;;;;;4.85;3.85;;;;;;;20.13;52.47;98587.44;5065973;28;20085;-76
2023/10/20 02:05:21;;;;;;;4.00;3.60;;;;;;;20.22;52.36;98589.56;5063899;28;20025;-76
2023/10/20 02:07:48;;;;;;;5.88;4.47;;;;;;;20.15;52.45;98586.16;5064437;28;20052;-76
2023/10/20 02:10:14;;;;;;;4.78;4.07;;;;;;;20.06;52.39;98555.19;5065712;28;20453;-76
2023/10/20 02:12:40;;;;;;;5.47;3.92;;;;;;;20.20;52.69;98586.25;5047161;28;20025;-76
2023/10/20 02:15:07;;;;;;;6.30;4.72;;;;;;;20.20;52.38;98585.44;5061149;28;20052;-76
2023/10/20 02:17:33;;;;;;;5.72;3.95;;;;;;;20.18;52.44;98576.78;5063734;28;20041;-76
2023/10/20 02:19:58;;;;;;;5.38;4.15;;;;;;;19.98;52.29;98540.16;5064667;28;20037;-76
2023/10/20 02:22:25;;;;;;;5.72;4.97;;;;;;;19.93;52.19;98537.34;5065540;28;20040;-76
2023/10/20 02:24:50;;;;;;;5.25;4.18;;;;;;;20.13;52.55;98568.53;5064004;28;20029;-76
2023/10/20 02:27:15;;;;;;;5.57;4.00;;;;;;;19.94;51.83;98540.84;5065858;28;20025;-76
2023/10/20 02:29:40;;;;;;;5.05;3.97;;;;;;;20.14;52.26;98568.34;5065592;28;20089;-76
2023/10/20 02:32:06;;;;;;;5.30;4.22;;;;;;;20.14;52.67;98562.13;5064085;28;20454;-76
2023/10/20 02:34:31;;;;;;;5.80;5.07;;;;;;;20.09;52.71;98560.13;5047432;28;20029;-76
2023/10/20 02:36:57;;;;;;;5.70;4.90;;;;;;;20.12;52.22;98556.13;5064788;28;20029;-76
2023/10/20 02:39:22;;;;;;;6.47;5.15;;;;;;;20.11;52.35;98543.69;5065672;28;20033;-76
2023/10/20 02:41:47;;;;;;;5.65;4.97;;;;;;;19.97;52.22;98516.94;5047655;28;20047;-76
2023/10/20 02:44:13;;;;;;;6.07;4.47;;;;;;;20.07;52.31;98532.53;5046804;28;20037;-76
2023/10/20 02:46:39;;;;;;;6.07;5.15;;;;;;;20.03;52.52;98525.16;5063617;28;20031;-76
2023/10/20 02:49:04;;;;;;;5.70;4.45;;;;;;;20.08;52.49;98523.38;5065327;28;20425;-76
2023/10/20 02:51:29;;;;;;;7.15;4.90;;;;;;;19.90;52.27;98486.56;5046678;28;20025;-75
2023/10/20 02:53:54;;;;;;;6.15;4.45;;;;;;;19.97;52.39;98483.75;5065496;28;20054;-76
2023/10/20 02:56:20;;;;;;;5.95;4.70;;;;;;;20.06;52.38;98492.31;5046877;28;20036;-76
2023/10/20 02:58:46;;;;;;;5.55;4.72;;;;;;;19.92;52.38;98459.34;5047369;28;20029;-76
2023/10/20 03:01:13;;;;;;;5.90;4.72;;;;;;;19.86;52.44;98446.81;5063703;28;20130;-76
2023/10/20 03:03:38;;;;;;;5.28;4.35;;;;;;;20.03;52.29;98474.72;5064092;28;20037;-76
2023/10/20 03:06:04;;;;;;;5.60;4.60;;;;;;;19.94;52.23;98465.34;5062215;28;20055;-76
2023/10/20 03:08:30;;;;;;;6.10;4.65;;;;;;;20.02;52.13;98477.66;5046899;28;20024;-76
2023/10/20 03:10:56;;;;;;;6.00;4.80;;;;;;;19.78;52.45;98437.19;5064388;28;20092;-76
2023/10/20 03:13:25;;;;;;;5.97;4.88;;;;;;;19.95;52.34;98459.72;5047142;28;20036;-76
2023/10/20 03:15:51;;;;;;;6.63;5.10;;;;;;;19.85;52.52;98437.91;5061251;28;20029;-76
2023/10/20 03:18:16;;;;;;;5.53;4.47;;;;;;;19.80;52.49;98429.72;5063265;28;20045;-76
2023/10/20 03:20:43;;;;;;;5.85;5.03;;;;;;;19.97;52.17;98449.53;5046556;28;20115;-76
2023/10/20 03:23:09;;;;;;;5.95;4.68;;;;;;;19.98;52.50;98445.75;5044863;28;20035;-76
2023/10/20 03:25:34;;;;;;;5.57;4.63;;;;;;;19.97;52.46;98441.44;5064424;28;20068;-76
2023/10/20 03:27:59;;;;;;;5.57;4.70;;;;;;;19.96;52.47;98442.50;5064440;28;20092;-76
2023/10/20 03:30:24;;;;;;;7.60;5.32;;;;;;;19.96;52.51;98436.25;5064607;28;20047;-76
2023/10/20 03:32:50;;;;;;;5.63;4.63;;;;;;;19.83;52.15;98407.66;5064644;28;20032;-76
2023/10/20 03:35:16;;;;;;;7.15;5.10;;;;;;;19.47;52.18;98342.13;5063852;28;20025;-76
2023/10/20 03:37:41;;;;;;;5.57;4.68;;;;;;;19.87;52.39;98406.13;5063740;28;20478;-76
2023/10/20 03:40:15;;;;;;;5.57;4.40;;;;;;;19.93;52.14;98404.38;5064178;28;20029;-75
2023/10/20 03:42:42;;;;;;;5.88;4.80;;;;;;;19.92;52.41;98414.34;5047309;28;20282;-76
2023/10/20 03:45:09;;;;;;;5.63;4.95;;;;;;;19.92;52.52;98408.09;5045507;28;20033;-76
2023/10/20 03:47:38;;;;;;;6.03;4.60;;;;;;;19.78;52.37;98388.66;5046013;28;20092;-76
2023/10/20 03:50:14;;;;;;;5.88;4.88;;;;;;;19.39;52.43;98323.63;5064071;28;20040;-77
2023/10/20 03:52:41;;;;;;;6.05;4.90;;;;;;;19.89;52.42;98398.63;5062528;28;20080;-76
2023/10/20 03:55:08;;;;;;;6.28;5.07;;;;;;;19.82;52.25;98391.72;5045601;28;20025;-76
2023/10/20 03:57:34;;;;;;;5.40;4.57;;;;;;;19.82;52.25;98397.94;5046409;28;20025;-76
2023/10/20 04:00:14;;;;;;;5.47;4.43;;;;;;;19.87;52.12;98397.22;5046147;28;20398;-77
2023/10/20 04:02:40;;;;;;;6.35;5.05;;;;;;;19.65;52.49;98359.25;5048065;28;20029;-75
2023/10/20 04:05:06;;;;;;;5.72;4.97;;;;;;;19.85;52.43;98386.69;5044915;28;20485;-78
2023/10/20 04:07:31;;;;;;;6.30;4.95;;;;;;;19.66;52.47;98355.50;5063558;28;20021;-76
2023/10/20 04:09:59;;;;;;;5.70;4.85;;;;;;;19.84;52.15;98395.84;5058383;28;20021;-76
2023/10/20 04:12:24;;;;;;;6.47;5.03;;;;;;;19.70;52.41;98372.84;5056772;28;20025;-75
2023/10/20 04:14:53;;;;;;;5.40;4.50;;;;;;;19.60;52.28;98345.63;5045033;28;20040;-76
2023/10/20 04:17:19;;;;;;;;;;;;;;;19.83;52.41;98377.16;5062862;28;20086;-77
2023/10/20 04:19:45;;;;;;;6.90;4.70;;;;;;;19.73;52.55;98357.03;5058107;28;19913;-76
2023/10/20 04:22:13;;;;;;;5.53;4.53;;;;;;;19.66;52.50;98342.03;5042992;28;20016;-76
2023/10/20 04:24:38;;;;;;;5.88;5.10;;;;;;;19.80;52.42;98358.78;5046909;28;20032;-75
2023/10/20 04:27:04;;;;;;;5.28;4.53;;;;;;;19.76;52.78;98355.75;5064132;28;20020;-77
2023/10/20 04:29:35;;;;;;;5.10;4.47;;;;;;;19.72;52.61;98362.66;5059580;28;20056;-76
2023/10/20 04:41:55;;;;;;;5.63;4.60;;;;;;;19.78;52.58;98350.91;5060709;28;20055;-76
2023/10/20 04:43:37;;;;;;;5.78;4.70;;;;;;;19.72;52.47;98336.53;5001133;28;20076;-78
2023/10/20 04:51:46;;;;;;;5.82;4.70;;;;;;;19.09;52.30;98232.16;4943357;29;20105;-78
2023/10/20 04:54:20;;;;;;;5.65;4.25;;;;;;;19.73;52.41;98315.75;4943273;29;20046;-79
2023/10/20 04:57:19;;;;;;;7.25;5.40;;;;;;;19.67;52.52;98317.53;4927643;29;20457;-78
2023/10/20 04:59:45;;;;;;;5.90;5.30;;;;;;;19.65;52.65;98313.44;4940916;29;20048;-77
2023/10/20 05:02:24;;;;;;;5.85;4.97;;;;;;;19.71;52.92;98329.50;4943419;29;20095;-77
2023/10/20 05:04:51;;;;;;;5.43;4.70;;;;;;;19.60;52.86;98303.31;4940217;29;20083;-78
2023/10/20 05:07:18;;;;;;;6.00;4.75;;;;;;;19.52;52.83;98281.31;4921675;29;20051;-78
2023/10/20 05:09:44;;;;;;;7.45;5.22;;;;;;;19.71;53.28;98290.94;4941781;29;20044;-76
2023/10/20 05:12:10;;;;;;;5.25;4.25;;;;;;;19.59;53.29;98265.84;4958798;29;20043;-78
2023/10/20 05:14:35;;;;;;;5.28;4.75;;;;;;;19.65;53.02;98267.59;4962584;29;20547;-78
2023/10/20 05:17:00;;;;;;;6.05;4.50;;;;;;;19.69;53.36;98274.16;4959448;29;20043;-79
2023/10/20 05:19:28;;;;;;;6.03;4.90;;;;;;;19.45;53.23;98239.16;4962294;29;20051;-80
2023/10/20 05:21:55;;;;;;;8.75;5.97;;;;;;;19.55;53.70;98260.09;4945722;29;20035;-77
2023/10/20 05:24:20;;;;;;;8.55;6.78;;;;;;;19.38;53.41;98216.09;4963011;29;20046;-80
2023/10/20 05:26:46;;;;;;;7.82;6.20;;;;;;;19.26;53.51;98177.56;5051379;28;20041;-79
2023/10/20 05:29:11;;;;;;;8.57;6.70;;;;;;;19.53;53.19;98202.91;5063187;28;20029;-78
2023/10/20 05:31:36;;;;;;;12.05;8.30;;;;;;;19.59;53.53;98233.50;5062690;28;20038;-78
2023/10/20 05:34:02;;;;;;;11.48;7.90;;;;;;;19.67;53.62;98238.56;5044663;28;20081;-76
2023/10/20 05:36:27;;;;;;;13.27;8.70;;;;;;;19.65;53.61;98241.47;5044039;28;20062;-76
2023/10/20 05:38:52;;;;;;;10.10;8.13;;;;;;;19.24;53.59;98167.00;5040766;28;20053;-76
2023/10/20 05:41:18;;;;;;;15.05;9.73;;;;;;;19.43;53.18;98198.13;5061000;28;20093;-76
2023/10/20 05:43:43;;;;;;;13.90;10.18;;;;;;;19.57;53.31;98212.16;5062097;28;20466;-76
2023/10/20 05:46:17;;;;;;;12.63;9.60;;;;;;;19.46;53.50;98183.38;5062701;28;20037;-76
2023/10/20 05:48:42;;;;;;;11.23;8.30;;;;;;;19.41;53.88;98169.78;5064344;28;20024;-77
2023/10/20 05:51:07;;;;;;;14.93;9.82;;;;;;;19.50;53.64;98192.63;5048319;28;20051;-77
2023/10/20 05:53:33;;;;;;;12.07;9.35;;;;;;;19.62;53.55;98212.28;5065068;28;20013;-76
2023/10/20 05:55:58;;;;;;;12.50;9.00;;;;;;;19.62;53.70;98206.09;5065857;28;20032;-76
2023/10/20 05:58:23;;;;;;;11.07;8.80;;;;;;;19.51;53.57;98196.97;5063803;28;20059;-75
2023/10/20 06:00:49;;;;;;;11.55;8.75;;;;;;;19.61;53.67;98212.53;5063288;28;20029;-76
2023/10/20 06:03:14;;;;;;;10.63;7.97;;;;;;;19.41;53.71;98188.63;5048586;28;20055;-76
2023/10/20 06:05:39;;;;;;;12.07;8.63;;;;;;;19.53;53.75;98213.69;5047647;28;20466;-77
2023/10/20 06:08:05;;;;;;;11.20;7.82;;;;;;;19.60;54.04;98217.09;5047602;28;20025;-76
2023/10/20 06:10:30;;;;;;;15.27;10.00;;;;;;;19.50;54.11;98214.19;5048153;28;20059;-77
2023/10/20 06:12:56;;;;;;;12.88;8.98;;;;;;;19.60;54.10;98233.25;5066269;28;20028;-77
2023/10/20 06:15:21;;;;;;;9.90;8.55;;;;;;;19.60;53.58;98230.56;5064313;28;20098;-78
2023/10/20 06:17:51;;;;;;;10.70;8.15;;;;;;;19.60;53.71;98235.13;5048096;28;20381;-77
2023/10/20 06:20:16;;;;;;;11.57;8.88;;;;;;;19.43;53.88;98203.53;5065656;28;20028;-75
2023/10/20 06:22:42;;;;;;;10.77;8.70;;;;;;;19.57;53.49;98220.25;5047804;28;20055;-78
2023/10/20 06:25:14;;;;;;;13.20;8.50;;;;;;;19.59;53.51;98218.16;5047689;28;20028;-76
2023/10/20 06:27:43;;;;;;;11.00;8.80;;;;;;;19.54;53.89;98209.13;5047048;28;20047;-77
2023/10/20 06:30:14;;;;;;;13.38;9.65;;;;;;;19.58;53.53;98204.88;5061084;28;20116;-76
2023/10/20 06:32:42;;;;;;;11.20;8.55;;;;;;;19.57;53.56;98220.25;5029401;28;20029;-77
2023/10/20 06:35:09;;;;;;;11.80;9.02;;;;;;;19.31;53.67;98175.78;5042803;28;20021;-76
2023/10/20 06:37:38;;;;;;;11.93;8.90;;;;;;;19.37;53.34;98188.31;5060970;28;20028;-77
2023/10/20 06:40:04;;;;;;;11.52;9.10;;;;;;;19.39;53.27;98199.66;5063202;28;20029;-76
2023/10/20 06:42:29;;;;;;;11.45;8.95;;;;;;;19.55;53.42;98203.50;5061918;28;20039;-77
2023/10/20 06:44:55;;;;;;;11.80;8.85;;;;;;;19.54;53.28;98207.28;5063429;28;20437;-76
2023/10/20 06:47:21;;;;;;;10.88;9.02;;;;;;;19.55;53.49;98202.69;5038165;28;20509;-76
2023/10/20 06:49:46;;;;;;;10.85;8.32;;;;;;;19.54;53.15;98201.88;5058649;28;20021;-76
2023/10/20 06:52:17;;;;;;;9.32;7.90;;;;;;;19.52;53.17;98201.28;5063228;28;20044;-76
2023/10/20 06:54:42;;;;;;;11.30;8.32;;;;;;;19.53;53.20;98212.88;5041252;28;20047;-75
2023/10/20 06:57:09;;;;;;;10.23;8.68;;;;;;;19.36;53.18;98183.16;5064727;28;20101;-76
2023/10/20 06:59:34;;;;;;;10.07;7.75;;;;;;;19.51;53.17;98207.72;5063877;28;20017;-76
2023/10/20 07:02:00;;;;;;;9.77;7.05;;;;;;;19.35;53.38;98195.00;5061908;28;20028;-75
2023/10/20 07:04:26;;;;;;;9.00;7.40;;;;;;;19.51;53.11;98196.13;5063371;28;20106;-76
2023/10/20 07:06:52;;;;;;;9.68;7.22;;;;;;;19.49;53.38;98189.09;5061045;28;20048;-76
2023/10/20 07:09:17;;;;;;;9.52;7.95;;;;;;;19.49;53.04;98193.66;5062110;28;20431;-78
2023/10/20 07:11:43;;;;;;;10.02;7.35;;;;;;;19.42;53.14;98190.31;5043523;28;20045;-76
2023/10/20 07:14:12;;;;;;;8.25;6.55;;;;;;;19.11;53.28;98134.94;5063258;28;20025;-76
2023/10/20 07:16:37;;;;;;;9.43;6.90;;;;;;;19.47;53.11;98190.41;5046045;28;20020;-75
2023/10/20 07:19:06;;;;;;;9.10;7.55;;;;;;;19.27;53.37;98174.63;5045404;28;20040;-75
2023/10/20 07:21:31;;;;;;;;;;;;;;;19.46;53.37;98200.38;5060936;28;20390;-75
2023/10/20 07:23:56;;;;;;;10.23;7.22;;;;;;;19.41;53.51;98184.09;5044298;28;19936;-75
2023/10/20 07:26:22;;;;;;;9.15;7.00;;;;;;;19.44;53.42;98174.69;5044804;28;20032;-75
2023/10/20 07:28:48;;;;;;;8.63;6.95;;;;;;;19.22;53.46;98142.19;5059700;28;20017;-75
2023/10/20 07:31:14;;;;;;;9.48;7.65;;;;;;;19.43;53.38;98181.97;5043441;28;20040;-76
2023/10/20 07:33:40;;;;;;;8.20;6.68;;;;;;;19.24;53.67;98158.94;5060949;28;20035;-75
2023/10/20 07:36:05;;;;;;;8.70;6.18;;;;;;;19.23;53.70;98160.00;5044013;28;20021;-75
2023/10/20 07:38:31;;;;;;;9.70;7.60;;;;;;;19.21;53.40;98152.16;5041840;28;20090;-76
2023/10/20 07:41:03;;;;;;;7.10;5.50;;;;;;;19.00;53.49;98117.78;5045139;28;20024;-75
2023/10/20 07:43:28;;;;;;;8.73;6.68;;;;;;;19.31;53.48;98173.09;5029384;28;20044;-76
2023/10/20 07:45:54;;;;;;;7.47;6.00;;;;;;;19.42;53.46;98190.31;5044087;28;20032;-75
2023/10/20 07:48:19;;;;;;;8.32;6.45;;;;;;;19.38;53.70;98181.06;5060259;28;20496;-75
2023/10/20 07:50:44;;;;;;;7.68;6.63;;;;;;;19.41;53.73;98183.25;5061749;28;20028;-75
2023/10/20 07:53:10;;;;;;;7.80;6.05;;;;;;;19.37;53.53;98169.47;5061025;28;20029;-75
2023/10/20 07:55:35;;;;;;;9.35;7.00;;;;;;;19.40;53.79;98171.66;5059700;28;20029;-76
2023/10/20 07:58:00;;;;;;;7.50;6.05;;;;;;;19.40;53.40;98174.34;5062814;28;20434;-75
2023/10/20 08:00:25;;;;;;;7.18;5.90;;;;;;;19.40;53.54;98177.03;5062236;28;20095;-75
2023/10/20 08:02:51;;;;;;;7.95;6.55;;;;;;;19.39;53.84;98177.28;5061497;28;20364;-75
2023/10/20 08:05:16;;;;;;;7.57;5.97;;;;;;;19.24;53.78;98153.53;5060964;28;20044;-76
2023/10/20 08:07:42;;;;;;;7.70;6.35;;;;;;;19.31;53.68;98159.63;5061902;28;20039;-76
2023/10/20 08:10:08;;;;;;;7.22;5.88;;;;;;;19.19;53.91;98135.41;5060826;28;20052;-76
2023/10/20 08:12:33;;;;;;;6.68;5.40;;;;;;;19.38;53.64;98172.97;5060965;28;20063;-75
2023/10/20 08:14:58;;;;;;;6.65;5.45;;;;;;;19.22;53.70;98153.78;5057804;28;20519;-75
2023/10/20 08:17:24;;;;;;;7.72;6.30;;;;;;;19.37;54.03;98180.25;5049635;28;20075;-75
2023/10/20 08:19:49;;;;;;;7.03;5.93;;;;;;;19.33;53.60;98164.78;5043104;28;20036;-76
2023/10/20 08:22:15;;;;;;;7.03;5.57;;;;;;;19.23;54.01;98141.13;5059975;28;20033;-75
2023/10/20 08:24:40;;;;;;;8.52;5.93;;;;;;;19.33;53.95;98167.47;5060003;28;20086;-75
2023/10/20 08:27:05;;;;;;;7.00;5.50;;;;;;;19.32;53.63;98155.88;5042250;28;20068;-76
2023/10/20 08:29:31;;;;;;;6.72;5.75;;;;;;;19.35;54.02;98168.88;5044487;28;20029;-75
2023/10/20 08:31:56;;;;;;;7.00;5.35;;;;;;;19.31;53.74;98156.13;5043559;28;20092;-75
2023/10/20 08:34:23;;;;;;;6.40;5.13;;;;;;;19.06;53.76;98119.50;5044176;28;20088;-75
2023/10/20 08:36:48;;;;;;;6.30;5.13;;;;;;;19.33;53.80;98162.09;5059466;28;20028;-75
2023/10/20 08:39:14;;;;;;;7.60;5.63;;;;;;;19.34;53.98;98147.56;5043567;28;20055;-75
2023/10/20 08:41:43;;;;;;;7.05;5.72;;;;;;;19.28;53.92;98138.53;5043612;28;20025;-75
2023/10/20 08:44:09;;;;;;;5.97;4.88;;;;;;;19.19;54.04;98130.00;5062586;28;20029;-76
2023/10/20 08:46:35;;;;;;;6.05;5.45;;;;;;;19.20;53.88;98130.84;5059790;28;20040;-75
2023/10/20 08:49:02;;;;;;;6.20;5.00;;;;;;;19.31;53.73;98148.84;5043774;28;20033;-75
2023/10/20 08:51:28;;;;;;;5.25;4.65;;;;;;;19.25;53.95;98140.91;5027548;28;20043;-75
2023/10/20 08:53:54;;;;;;;6.15;5.00;;;;;;;19.14;53.89;98129.91;5043893;28;20088;-75
2023/10/20 08:56:19;;;;;;;5.03;4.50;;;;;;;19.19;54.10;98135.41;5053045;28;20040;-74
2023/10/20 08:58:46;;;;;;;6.95;4.68;;;;;;;19.14;54.09;98118.31;5061998;28;20025;-75
2023/10/20 09:01:11;;;;;;;6.03;5.20;;;;;;;19.22;54.13;98128.72;5042650;28;20128;-75
2023/10/20 09:03:44;;;;;;;5.68;4.78;;;;;;;18.84;53.92;98062.78;5061715;28;20130;-75
2023/10/20 09:06:14;;;;;;;6.85;4.68;;;;;;;19.14;53.82;98119.13;5058827;28;20074;-75
2023/10/20 09:08:39;;;;;;;6.45;4.57;;;;;;;19.30;54.05;98141.81;5059514;28;20024;-75
2023/10/20 09:11:09;;;;;;;4.72;4.13;;;;;;;18.80;53.92;98061.59;5056261;28;20083;-75
2023/10/20 09:13:39;;;;;;;5.72;4.43;;;;;;;19.29;54.08;98142.88;5043473;28;20049;-75
2023/10/20 09:16:08;;;;;;;4.93;3.97;;;;;;;19.29;53.85;98147.47;5043182;28;20021;-75
2023/10/20 09:18:42;;;;;;;5.63;4.60;;;;;;;19.22;54.02;98124.16;5061677;28;20025;-75
2023/10/20 09:21:08;;;;;;;5.28;4.38;;;;;;;19.07;53.88;98099.59;5045227;28;20022;-75
2023/10/20 09:23:33;;;;;;;5.35;4.70;;;;;;;19.28;53.87;98125.06;5046894;28;20044;-76
2023/10/20 09:25:58;;;;;;;6.38;4.50;;;;;;;19.13;53.77;98097.84;5062159;28;20398;-76
2023/10/20 09:28:24;;;;;;;5.30;4.63;;;;;;;19.29;53.98;98126.72;5065149;28;20032;-76
2023/10/20 09:30:49;;;;;;;4.90;4.07;;;;;;;19.08;54.04;98092.34;5061615;28;20461;-76
2023/10/20 09:33:15;;;;;;;5.13;4.53;;;;;;;18.87;53.75;98050.72;5062572;28;20029;-77
2023/10/20 09:35:41;;;;;;;4.65;3.58;;;;;;;19.33;53.83;98114.41;5060997;28;20096;-77
2023/10/20 09:38:10;;;;;;;4.00;3.60;;;;;;;19.28;53.98;98114.28;5047407;28;20092;-76
2023/10/20 09:40:35;;;;;;;3.92;3.53;;;;;;;19.45;53.61;98134.06;5047672;28;20056;-75
2023/10/20 09:43:23;;;;;;;4.00;3.60;;;;;;;19.49;53.43;98139.75;5047173;28;20029;-76
2023/10/20 09:46:02;;;;;;;4.90;4.03;;;;;;;19.34;53.58;98110.66;5045152;28;20459;-76
2023/10/20 09:48:27;;;;;;;5.13;3.95;;;;;;;19.56;53.24;98131.56;5046797;28;20029;-77
2023/10/20 09:50:53;;;;;;;5.40;3.63;;;;;;;19.44;53.52;98108.16;5044039;28;20036;-76
2023/10/20 09:53:18;;;;;;;4.25;3.80;;;;;;;19.58;53.36;98138.34;5063065;28;20039;-76
2023/10/20 09:55:45;;;;;;;4.15;3.42;;;;;;;19.60;53.34;98130.03;5044999;28;20036;-76
2023/10/20 09:58:11;;;;;;;4.50;3.50;;;;;;;19.42;53.09;98106.78;5063163;28;20088;-76
2023/10/20 10:00:36;;;;;;;3.95;3.47;;;;;;;19.67;52.82;98128.03;5062606;28;20120;-76
2023/10/20 10:03:03;;;;;;;3.88;3.45;;;;;;;19.55;52.85;98092.19;5062459;28;20064;-76
2023/10/20 10:05:29;;;;;;;3.90;3.33;;;;;;;19.66;52.88;98097.53;5046111;28;20024;-76
2023/10/20 10:08:06;;;;;;;3.67;3.28;;;;;;;19.44;52.81;98064.22;5045524;28;20031;-76
2023/10/20 10:10:35;;;;;;;4.95;3.42;;;;;;;19.73;52.79;98106.31;5050829;28;20102;-76
2023/10/20 10:13:04;;;;;;;;;;;;;;;19.75;52.67;98107.94;5063663;28;20021;-76
2023/10/20 10:15:39;;;;;;;;;;;;;;;19.75;52.49;98092.56;5047669;28;20001;-75
2023/10/20 10:18:10;;;;;;;3.78;3.22;;;;;;;19.62;52.93;98071.31;5062543;28;19912;-76
2023/10/20 10:20:45;;;;;;;3.83;3.33;;;;;;;19.67;52.71;98085.72;5042516;28;20037;-75
2023/10/20 10:23:12;;;;;;;4.28;3.38;;;;;;;19.73;52.87;98100.09;5045561;28;20033;-75
2023/10/20 10:25:47;;;;;;;3.47;3.17;;;;;;;19.52;52.71;98063.03;5047330;28;20021;-76
2023/10/20 10:28:18;;;;;;;4.57;2.60;;;;;;;19.78;52.58;98108.28;5061504;28;20021;-76
2023/10/20 10:30:45;;;;;;;3.40;2.80;;;;;;;19.51;53.02;98048.75;5046314;28;20024;-76
2023/10/20 10:33:11;;;;;;;4.88;3.00;;;;;;;19.47;53.07;98037.63;5061685;28;20025;-76
2023/10/20 10:35:38;;;;;;;3.47;3.10;;;;;;;19.79;53.13;98072.16;5046233;28;20021;-76
2023/10/20 10:38:24;;;;;;;3.17;2.83;;;;;;;19.81;53.17;98071.94;5045622;28;20021;-76
2023/10/20 10:40:52;;;;;;;3.20;2.60;;;;;;;19.70;52.82;98060.13;5044467;28;20053;-76
2023/10/20 10:43:19;;;;;;;3.17;2.88;;;;;;;19.83;53.25;98069.81;5063923;28;20084;-77
2023/10/20 10:45:45;;;;;;;3.88;2.70;;;;;;;19.84;53.15;98071.47;5045419;28;20025;-78
2023/10/20 10:48:12;;;;;;;3.25;2.90;;;;;;;19.83;52.87;98059.00;5062099;28;20031;-78
2023/10/20 10:50:38;;;;;;;3.38;2.50;;;;;;;19.78;53.25;98051.66;5062098;28;20091;-78
2023/10/20 10:53:04;;;;;;;3.75;2.90;;;;;;;19.75;53.38;98045.94;5062730;28;20445;-78
2023/10/20 10:55:30;;;;;;;3.40;2.60;;;;;;;19.72;52.98;98042.69;5045812;28;20491;-78
2023/10/20 10:58:00;;;;;;;2.95;2.58;;;;;;;19.85;52.85;98049.63;5045980;28;20108;-76
2023/10/20 11:00:26;;;;;;;3.22;2.47;;;;;;;19.86;53.02;98055.84;5042831;28;20033;-77
2023/10/20 11:02:51;;;;;;;3.15;2.67;;;;;;;19.86;53.10;98039.66;5059947;28;20021;-76
2023/10/20 11:05:17;;;;;;;2.70;2.17;;;;;;;19.85;52.79;98044.25;5061459;28;20033;-76
2023/10/20 11:08:03;;;;;;;2.97;2.33;;;;;;;19.68;53.14;98009.19;5059396;28;20094;-76
2023/10/20 11:10:37;;;;;;;3.65;2.53;;;;;;;19.67;53.09;97993.25;5060200;28;20048;-75
2023/10/20 11:13:07;;;;;;;2.38;2.13;;;;;;;19.71;53.25;97989.03;5028901;28;20051;-75
2023/10/20 11:15:33;;;;;;;3.15;2.40;;;;;;;19.84;52.97;98014.84;5061710;28;20028;-76
2023/10/20 11:18:03;;;;;;;3.35;2.40;;;;;;;19.81;52.74;97999.16;5046158;28;20044;-77
2023/10/20 11:20:32;;;;;;;2.92;2.38;;;;;;;19.80;52.83;97998.31;5061788;28;20029;-76
2023/10/20 11:22:58;;;;;;;2.55;2.35;;;;;;;19.68;53.04;97986.81;5040549;28;20025;-77
2023/10/20 11:25:24;;;;;;;2.28;2.08;;;;;;;19.84;53.00;98010.25;5043720;28;20036;-77
2023/10/20 11:27:54;;;;;;;3.13;2.13;;;;;;;19.84;53.06;98007.56;5063764;28;20055;-77
2023/10/20 11:30:31;;;;;;;4.95;2.20;;;;;;;19.83;53.05;97997.00;5062844;28;20363;-78
2023/10/20 11:32:57;;;;;;;5.15;2.15;;;;;;;19.79;52.75;97991.28;5047176;28;20032;-78
2023/10/20 11:35:26;;;;;;;3.78;2.20;;;;;;;19.82;53.11;97996.19;5046321;28;20037;-78
2023/10/20 11:37:52;;;;;;;2.17;1.95;;;;;;;19.47;52.77;97937.09;5045451;28;20025;-78
2023/10/20 11:40:19;;;;;;;2.78;1.95;;;;;;;19.65;52.79;97971.94;5045758;28;20024;-78
2023/10/20 11:42:44;;;;;;;3.03;2.30;;;;;;;19.54;53.03;97947.72;5063078;28;20079;-78
2023/10/20 11:45:12;;;;;;;3.75;2.13;;;;;;;19.61;52.99;97945.72;5044621;28;20581;-78
2023/10/20 11:47:39;;;;;;;2.30;1.87;;;;;;;19.83;52.68;97978.94;5046070;28;20037;-78